Saturday, August 18, 2018, 1:52 PM EDT
Back to Local

KNUI, Knui Webster Field Annex

Location: Saint Inigoes, MD, United States Lat: 38.15
Local Time: 1:52 PM EDT (17:52 GMT) Lon: -76.417
Time Zone: US/Eastern Elev: 19 ft

Show me the last for .
Show Coded

Time T Td Feel RH Dir Speed Gust Alt SLP Vis Weather Sky Remarks
2018-08-18 12:53 85 74 93 69 260° 6 - 29.89 29.89 10 CLR None
2018-08-18 11:53 84 74 91 71 240° 9 - 29.90 29.90 10 CLR None
2018-08-18 10:53 83 74 90 74 250° 9 - 29.92 29.91 10 CLR None
2018-08-18 09:53 82 74 89 76 260° 8 - 29.92 29.92 10 CLR None
2018-08-18 08:53 79 73 84 82 240° 8 - 29.92 29.92 10 CLR None
2018-08-18 07:53 79 73 84 82 230° 10 - 29.93 29.93 10 CLR 6-hr Min Temp (8am): 79.0°F
6-hr Max Temp (8am): 82.0°F
2018-08-18 06:53 79 73 84 82 240° 9 - 29.93 29.93 10 CLR None
2018-08-18 05:53 80 73 85 79 240° 12 - 29.92 29.92 10 CLR None
2018-08-18 04:53 81 73 87 76 230° 14 - 29.92 29.91 10 CLR None
2018-08-18 03:53 81 74 87 79 200° 9 - 29.93 29.92 10 CLR None
2018-08-18 02:53 81 74 87 79 200° 9 - 29.94 29.93 10 CLR None
2018-08-18 01:53 82 74 89 76 220° 9 - 29.96 29.95 10 CLR 6-hr Min Temp (2am): 82.0°F
6-hr Max Temp (2am): 86.0°F
2018-08-18 00:53 83 75 91 77 220° 12 - 29.96 29.96 10 CLR 24-hr Min Temp (1am): 75.9°F
24-hr Max Temp (1am): 91.9°F
2018-08-17 23:53 83 76 91 79 210° 9 - 29.96 29.96 10 CLR None
2018-08-17 22:53 84 76 93 76 190° 12 - 29.95 29.95 10 CLR None
2018-08-17 21:53 84 76 93 76 190° 9 - 29.97 29.96 10 CLR None
2018-08-17 20:53 85 76 94 74 190° 8 - 29.96 29.95 10 CLR None
2018-08-17 19:53 86 77 97 74 180° 7 - 29.96 29.96 9 CLR 6-hr Min Temp (8pm): 86.0°F
6-hr Max Temp (8pm): 91.9°F
2018-08-17 18:53 87 76 97 69 180° 6 - 29.97 29.97 9 CLR None
2018-08-17 17:53 88 76 99 67 190° 6 - 29.97 29.97 9 CLR None
2018-08-17 16:53 91 75 102 59 180° 12 - 29.98 29.98 10 CLR None
2018-08-17 15:53 92 74 102 55 Variable 7 - 30.00 29.99 10 CLR None
2018-08-17 14:53 91 72 99 53 170° 10 - 30.01 30.01 10 CLR None
2018-08-17 13:53 91 74 101 57 160° 7 - 30.03 30.03 10 CLR 6-hr Min Temp (2pm): 81.0°F
6-hr Max Temp (2pm): 91.0°F

Support USWX by starting your Amazon purchase here.